sensor_id;sensor_type;location;lat;lon;timestamp;P1;durP1;ratioP1;P2;durP2;ratioP2
21899;SDS011;11114;50.658;12.704;2023-11-18T00:02:02;18.85;;;17.35;;
21899;SDS011;11114;50.658;12.704;2023-11-18T00:04:49;19.05;;;17.55;;
21899;SDS011;11114;50.658;12.704;2023-11-18T00:07:36;19.65;;;18.15;;
21899;SDS011;11114;50.658;12.704;2023-11-18T00:10:22;18.98;;;17.33;;
21899;SDS011;11114;50.658;12.704;2023-11-18T00:13:10;18.65;;;17.25;;
21899;SDS011;11114;50.658;12.704;2023-11-18T00:15:56;18.45;;;17.05;;
21899;SDS011;11114;50.658;12.704;2023-11-18T00:18:44;17.88;;;16.58;;
21899;SDS011;11114;50.658;12.704;2023-11-18T00:21:30;18.20;;;16.90;;
21899;SDS011;11114;50.658;12.704;2023-11-18T00:24:17;18.95;;;17.30;;
21899;SDS011;11114;50.658;12.704;2023-11-18T00:27:04;18.00;;;16.60;;
21899;SDS011;11114;50.658;12.704;2023-11-18T00:29:53;17.92;;;16.52;;
21899;SDS011;11114;50.658;12.704;2023-11-18T00:32:40;19.02;;;17.42;;
21899;SDS011;11114;50.658;12.704;2023-11-18T00:35:27;18.70;;;17.30;;
21899;SDS011;11114;50.658;12.704;2023-11-18T00:38:13;18.83;;;17.33;;
21899;SDS011;11114;50.658;12.704;2023-11-18T00:40:59;18.65;;;17.25;;
21899;SDS011;11114;50.658;12.704;2023-11-18T00:43:46;18.98;;;17.48;;
21899;SDS011;11114;50.658;12.704;2023-11-18T00:46:33;19.08;;;17.35;;
21899;SDS011;11114;50.658;12.704;2023-11-18T00:49:22;19.02;;;17.50;;
21899;SDS011;11114;50.658;12.704;2023-11-18T00:52:09;18.48;;;16.98;;
21899;SDS011;11114;50.658;12.704;2023-11-18T00:54:56;18.40;;;16.88;;
21899;SDS011;11114;50.658;12.704;2023-11-18T00:57:42;18.40;;;17.00;;
21899;SDS011;11114;50.658;12.704;2023-11-18T01:00:28;17.88;;;16.50;;
21899;SDS011;11114;50.658;12.704;2023-11-18T01:03:18;17.80;;;16.40;;
21899;SDS011;11114;50.658;12.704;2023-11-18T01:06:06;17.85;;;16.50;;
21899;SDS011;11114;50.658;12.704;2023-11-18T01:08:52;17.95;;;16.58;;
21899;SDS011;11114;50.658;12.704;2023-11-18T01:11:40;17.98;;;16.60;;
21899;SDS011;11114;50.658;12.704;2023-11-18T01:14:46;18.65;;;17.15;;
21899;SDS011;11114;50.658;12.704;2023-11-18T01:17:33;18.42;;;17.10;;
21899;SDS011;11114;50.658;12.704;2023-11-18T01:20:19;17.80;;;16.38;;
21899;SDS011;11114;50.658;12.704;2023-11-18T01:23:09;18.33;;;16.83;;
21899;SDS011;11114;50.658;12.704;2023-11-18T01:25:56;18.08;;;16.60;;
21899;SDS011;11114;50.658;12.704;2023-11-18T01:28:43;17.73;;;16.25;;
21899;SDS011;11114;50.658;12.704;2023-11-18T01:31:31;17.75;;;16.45;;
21899;SDS011;11114;50.658;12.704;2023-11-18T01:34:35;18.00;;;16.63;;
21899;SDS011;11114;50.658;12.704;2023-11-18T01:37:24;18.88;;;17.27;;
21899;SDS011;11114;50.658;12.704;2023-11-18T01:40:11;18.40;;;16.80;;
21899;SDS011;11114;50.658;12.704;2023-11-18T01:43:01;17.50;;;16.25;;
21899;SDS011;11114;50.658;12.704;2023-11-18T01:45:48;18.00;;;16.60;;
21899;SDS011;11114;50.658;12.704;2023-11-18T01:48:34;17.52;;;16.27;;
21899;SDS011;11114;50.658;12.704;2023-11-18T01:51:21;18.15;;;16.85;;
21899;SDS011;11114;50.658;12.704;2023-11-18T01:54:10;17.92;;;16.63;;
21899;SDS011;11114;50.658;12.704;2023-11-18T01:59:52;17.57;;;16.23;;
21899;SDS011;11114;50.658;12.704;2023-11-18T02:02:40;19.20;;;17.50;;
21899;SDS011;11114;50.658;12.704;2023-11-18T02:05:27;18.60;;;17.05;;
21899;SDS011;11114;50.658;12.704;2023-11-18T02:08:14;18.95;;;17.40;;
21899;SDS011;11114;50.658;12.704;2023-11-18T02:11:03;18.98;;;17.50;;
21899;SDS011;11114;50.658;12.704;2023-11-18T02:14:00;20.27;;;18.55;;
21899;SDS011;11114;50.658;12.704;2023-11-18T02:16:51;20.13;;;18.42;;
21899;SDS011;11114;50.658;12.704;2023-11-18T02:19:42;19.23;;;17.73;;
21899;SDS011;11114;50.658;12.704;2023-11-18T02:22:29;19.23;;;17.75;;
21899;SDS011;11114;50.658;12.704;2023-11-18T02:25:17;19.27;;;17.77;;
21899;SDS011;11114;50.658;12.704;2023-11-18T02:28:05;20.00;;;18.38;;
21899;SDS011;11114;50.658;12.704;2023-11-18T02:30:54;19.10;;;17.63;;
21899;SDS011;11114;50.658;12.704;2023-11-18T02:33:51;18.95;;;17.55;;
21899;SDS011;11114;50.658;12.704;2023-11-18T02:36:40;18.70;;;17.30;;
21899;SDS011;11114;50.658;12.704;2023-11-18T02:39:32;19.23;;;17.75;;
21899;SDS011;11114;50.658;12.704;2023-11-18T02:42:25;19.63;;;18.13;;
21899;SDS011;11114;50.658;12.704;2023-11-18T02:45:13;19.13;;;17.63;;
21899;SDS011;11114;50.658;12.704;2023-11-18T02:48:04;19.33;;;17.73;;
21899;SDS011;11114;50.658;12.704;2023-11-18T02:50:53;19.02;;;17.42;;
21899;SDS011;11114;50.658;12.704;2023-11-18T02:53:40;18.83;;;17.33;;
21899;SDS011;11114;50.658;12.704;2023-11-18T02:56:29;18.85;;;17.45;;
21899;SDS011;11114;50.658;12.704;2023-11-18T02:59:16;19.95;;;18.35;;
21899;SDS011;11114;50.658;12.704;2023-11-18T03:02:03;19.23;;;17.73;;
21899;SDS011;11114;50.658;12.704;2023-11-18T03:04:50;19.05;;;17.55;;
21899;SDS011;11114;50.658;12.704;2023-11-18T03:07:36;19.33;;;17.77;;
21899;SDS011;11114;50.658;12.704;2023-11-18T03:10:27;19.05;;;17.58;;
21899;SDS011;11114;50.658;12.704;2023-11-18T03:13:16;19.77;;;18.13;;
21899;SDS011;11114;50.658;12.704;2023-11-18T03:16:06;20.20;;;18.55;;
21899;SDS011;11114;50.658;12.704;2023-11-18T03:18:57;19.23;;;17.73;;
21899;SDS011;11114;50.658;12.704;2023-11-18T03:21:50;19.15;;;17.55;;
21899;SDS011;11114;50.658;12.704;2023-11-18T03:24:39;19.23;;;17.73;;
21899;SDS011;11114;50.658;12.704;2023-11-18T03:27:26;21.08;;;19.30;;
21899;SDS011;11114;50.658;12.704;2023-11-18T03:30:13;20.13;;;18.42;;
21899;SDS011;11114;50.658;12.704;2023-11-18T03:33:00;20.60;;;18.90;;
21899;SDS011;11114;50.658;12.704;2023-11-18T03:35:46;20.75;;;19.00;;
21899;SDS011;11114;50.658;12.704;2023-11-18T03:38:34;21.20;;;19.30;;
21899;SDS011;11114;50.658;12.704;2023-11-18T03:41:22;20.92;;;19.13;;
21899;SDS011;11114;50.658;12.704;2023-11-18T03:44:11;19.80;;;18.20;;
21899;SDS011;11114;50.658;12.704;2023-11-18T03:46:57;20.40;;;18.65;;
21899;SDS011;11114;50.658;12.704;2023-11-18T03:49:44;20.85;;;19.10;;
21899;SDS011;11114;50.658;12.704;2023-11-18T03:52:31;20.15;;;18.45;;
21899;SDS011;11114;50.658;12.704;2023-11-18T03:55:18;20.98;;;19.08;;
21899;SDS011;11114;50.658;12.704;2023-11-18T03:58:04;21.65;;;19.75;;
21899;SDS011;11114;50.658;12.704;2023-11-18T04:00:51;23.25;;;21.25;;
21899;SDS011;11114;50.658;12.704;2023-11-18T04:03:40;22.30;;;20.40;;
21899;SDS011;11114;50.658;12.704;2023-11-18T04:06:28;21.55;;;19.70;;
21899;SDS011;11114;50.658;12.704;2023-11-18T04:09:15;21.45;;;19.55;;
21899;SDS011;11114;50.658;12.704;2023-11-18T04:12:02;22.27;;;20.27;;
21899;SDS011;11114;50.658;12.704;2023-11-18T04:14:49;20.50;;;18.70;;
21899;SDS011;11114;50.658;12.704;2023-11-18T04:17:36;20.20;;;18.55;;
21899;SDS011;11114;50.658;12.704;2023-11-18T04:20:24;19.85;;;18.25;;
21899;SDS011;11114;50.658;12.704;2023-11-18T04:23:11;20.88;;;18.90;;
21899;SDS011;11114;50.658;12.704;2023-11-18T04:25:58;20.40;;;18.80;;
21899;SDS011;11114;50.658;12.704;2023-11-18T04:28:45;21.27;;;19.58;;
21899;SDS011;11114;50.658;12.704;2023-11-18T04:31:32;20.75;;;19.05;;
21899;SDS011;11114;50.658;12.704;2023-11-18T04:34:20;21.75;;;19.92;;
21899;SDS011;11114;50.658;12.704;2023-11-18T04:37:07;20.88;;;19.17;;
21899;SDS011;11114;50.658;12.704;2023-11-18T04:39:54;21.45;;;19.42;;
21899;SDS011;11114;50.658;12.704;2023-11-18T04:42:41;20.80;;;19.00;;
21899;SDS011;11114;50.658;12.704;2023-11-18T04:45:30;22.13;;;20.13;;
21899;SDS011;11114;50.658;12.704;2023-11-18T04:48:17;20.95;;;19.15;;
21899;SDS011;11114;50.658;12.704;2023-11-18T04:51:04;21.00;;;19.30;;
21899;SDS011;11114;50.658;12.704;2023-11-18T04:53:51;20.83;;;19.02;;
21899;SDS011;11114;50.658;12.704;2023-11-18T04:56:38;20.88;;;19.02;;
21899;SDS011;11114;50.658;12.704;2023-11-18T04:59:24;22.38;;;20.27;;
21899;SDS011;11114;50.658;12.704;2023-11-18T05:02:11;20.25;;;18.60;;
21899;SDS011;11114;50.658;12.704;2023-11-18T05:04:57;21.02;;;19.27;;
21899;SDS011;11114;50.658;12.704;2023-11-18T05:07:44;21.35;;;19.45;;
21899;SDS011;11114;50.658;12.704;2023-11-18T05:10:30;21.48;;;19.70;;
21899;SDS011;11114;50.658;12.704;2023-11-18T05:13:18;22.30;;;20.60;;
21899;SDS011;11114;50.658;12.704;2023-11-18T05:16:05;22.27;;;20.38;;
21899;SDS011;11114;50.658;12.704;2023-11-18T05:18:52;21.63;;;19.83;;
21899;SDS011;11114;50.658;12.704;2023-11-18T05:21:38;22.58;;;20.60;;
21899;SDS011;11114;50.658;12.704;2023-11-18T05:24:25;21.67;;;19.95;;
21899;SDS011;11114;50.658;12.704;2023-11-18T05:27:12;22.83;;;20.88;;
21899;SDS011;11114;50.658;12.704;2023-11-18T05:29:59;22.17;;;20.17;;
21899;SDS011;11114;50.658;12.704;2023-11-18T05:32:46;22.83;;;20.60;;
21899;SDS011;11114;50.658;12.704;2023-11-18T05:35:32;22.08;;;20.17;;
21899;SDS011;11114;50.658;12.704;2023-11-18T05:38:21;22.90;;;20.70;;
21899;SDS011;11114;50.658;12.704;2023-11-18T05:41:10;21.23;;;19.42;;
21899;SDS011;11114;50.658;12.704;2023-11-18T05:44:02;22.17;;;20.05;;
21899;SDS011;11114;50.658;12.704;2023-11-18T05:46:50;21.48;;;19.58;;
21899;SDS011;11114;50.658;12.704;2023-11-18T05:49:37;22.23;;;20.00;;
21899;SDS011;11114;50.658;12.704;2023-11-18T05:52:24;23.08;;;21.08;;
21899;SDS011;11114;50.658;12.704;2023-11-18T05:55:10;23.45;;;21.58;;
21899;SDS011;11114;50.658;12.704;2023-11-18T05:57:57;24.15;;;21.95;;
21899;SDS011;11114;50.658;12.704;2023-11-18T06:00:44;22.98;;;20.98;;
21899;SDS011;11114;50.658;12.704;2023-11-18T06:03:33;23.63;;;21.67;;
21899;SDS011;11114;50.658;12.704;2023-11-18T06:06:25;23.70;;;21.45;;
21899;SDS011;11114;50.658;12.704;2023-11-18T06:09:11;24.80;;;22.60;;
21899;SDS011;11114;50.658;12.704;2023-11-18T06:12:07;23.20;;;21.20;;
21899;SDS011;11114;50.658;12.704;2023-11-18T06:14:56;22.45;;;20.55;;
21899;SDS011;11114;50.658;12.704;2023-11-18T06:17:43;23.33;;;21.23;;
21899;SDS011;11114;50.658;12.704;2023-11-18T06:20:30;23.25;;;21.10;;
21899;SDS011;11114;50.658;12.704;2023-11-18T06:23:21;21.98;;;20.25;;
21899;SDS011;11114;50.658;12.704;2023-11-18T06:26:09;23.90;;;21.70;;
21899;SDS011;11114;50.658;12.704;2023-11-18T06:28:56;22.42;;;20.52;;
21899;SDS011;11114;50.658;12.704;2023-11-18T06:31:43;24.98;;;22.58;;
21899;SDS011;11114;50.658;12.704;2023-11-18T06:34:29;25.15;;;22.83;;
21899;SDS011;11114;50.658;12.704;2023-11-18T06:37:16;24.42;;;21.98;;
21899;SDS011;11114;50.658;12.704;2023-11-18T06:40:03;24.25;;;21.83;;
21899;SDS011;11114;50.658;12.704;2023-11-18T06:43:02;23.63;;;21.48;;
21899;SDS011;11114;50.658;12.704;2023-11-18T06:45:49;25.92;;;23.55;;
21899;SDS011;11114;50.658;12.704;2023-11-18T06:48:36;24.20;;;22.05;;
21899;SDS011;11114;50.658;12.704;2023-11-18T06:51:22;25.90;;;23.30;;
21899;SDS011;11114;50.658;12.704;2023-11-18T06:54:10;26.38;;;24.08;;
21899;SDS011;11114;50.658;12.704;2023-11-18T06:57:00;26.48;;;23.88;;
21899;SDS011;11114;50.658;12.704;2023-11-18T06:59:48;24.58;;;22.38;;
21899;SDS011;11114;50.658;12.704;2023-11-18T07:02:35;24.45;;;22.00;;
21899;SDS011;11114;50.658;12.704;2023-11-18T07:05:22;24.35;;;21.88;;
21899;SDS011;11114;50.658;12.704;2023-11-18T07:08:10;24.58;;;22.23;;
21899;SDS011;11114;50.658;12.704;2023-11-18T07:10:58;25.77;;;23.48;;
21899;SDS011;11114;50.658;12.704;2023-11-18T07:13:47;23.23;;;21.20;;
21899;SDS011;11114;50.658;12.704;2023-11-18T07:16:35;25.77;;;23.45;;
21899;SDS011;11114;50.658;12.704;2023-11-18T07:19:22;24.77;;;22.25;;
21899;SDS011;11114;50.658;12.704;2023-11-18T07:22:10;24.88;;;22.48;;
21899;SDS011;11114;50.658;12.704;2023-11-18T07:24:56;24.85;;;22.60;;
21899;SDS011;11114;50.658;12.704;2023-11-18T07:27:46;24.90;;;22.60;;
21899;SDS011;11114;50.658;12.704;2023-11-18T07:30:33;25.55;;;23.00;;
21899;SDS011;11114;50.658;12.704;2023-11-18T07:33:21;24.40;;;22.10;;
21899;SDS011;11114;50.658;12.704;2023-11-18T07:36:08;24.58;;;22.30;;
21899;SDS011;11114;50.658;12.704;2023-11-18T07:38:57;26.95;;;24.27;;
21899;SDS011;11114;50.658;12.704;2023-11-18T07:41:47;27.33;;;24.73;;
21899;SDS011;11114;50.658;12.704;2023-11-18T07:44:34;24.92;;;22.73;;
21899;SDS011;11114;50.658;12.704;2023-11-18T07:47:21;25.45;;;23.25;;
21899;SDS011;11114;50.658;12.704;2023-11-18T07:50:08;25.00;;;22.90;;
21899;SDS011;11114;50.658;12.704;2023-11-18T07:52:58;25.47;;;23.17;;
21899;SDS011;11114;50.658;12.704;2023-11-18T07:55:44;25.10;;;22.70;;
21899;SDS011;11114;50.658;12.704;2023-11-18T07:58:31;25.75;;;23.20;;
21899;SDS011;11114;50.658;12.704;2023-11-18T08:01:21;24.40;;;22.10;;
21899;SDS011;11114;50.658;12.704;2023-11-18T08:04:08;25.70;;;23.17;;
21899;SDS011;11114;50.658;12.704;2023-11-18T08:06:54;24.83;;;22.52;;
21899;SDS011;11114;50.658;12.704;2023-11-18T08:09:41;25.98;;;23.58;;
21899;SDS011;11114;50.658;12.704;2023-11-18T08:12:32;26.15;;;23.75;;
21899;SDS011;11114;50.658;12.704;2023-11-18T08:15:19;27.10;;;24.35;;
21899;SDS011;11114;50.658;12.704;2023-11-18T08:18:05;25.23;;;22.80;;
21899;SDS011;11114;50.658;12.704;2023-11-18T08:20:52;24.73;;;22.33;;
21899;SDS011;11114;50.658;12.704;2023-11-18T08:23:39;25.00;;;22.75;;
21899;SDS011;11114;50.658;12.704;2023-11-18T08:26:26;25.10;;;22.48;;
21899;SDS011;11114;50.658;12.704;2023-11-18T08:29:12;24.58;;;22.35;;
21899;SDS011;11114;50.658;12.704;2023-11-18T08:31:59;26.20;;;23.80;;
21899;SDS011;11114;50.658;12.704;2023-11-18T08:34:45;26.88;;;24.00;;
21899;SDS011;11114;50.658;12.704;2023-11-18T08:37:33;27.92;;;25.33;;
21899;SDS011;11114;50.658;12.704;2023-11-18T08:40:23;24.60;;;22.30;;
21899;SDS011;11114;50.658;12.704;2023-11-18T08:43:12;26.70;;;24.25;;
21899;SDS011;11114;50.658;12.704;2023-11-18T08:45:58;28.33;;;25.55;;
21899;SDS011;11114;50.658;12.704;2023-11-18T08:48:44;29.00;;;26.25;;
21899;SDS011;11114;50.658;12.704;2023-11-18T08:51:30;28.20;;;25.40;;
21899;SDS011;11114;50.658;12.704;2023-11-18T08:54:21;28.48;;;25.88;;
21899;SDS011;11114;50.658;12.704;2023-11-18T08:57:54;26.50;;;24.10;;
21899;SDS011;11114;50.658;12.704;2023-11-18T09:00:59;26.48;;;24.17;;
21899;SDS011;11114;50.658;12.704;2023-11-18T09:04:28;24.23;;;22.17;;
21899;SDS011;11114;50.658;12.704;2023-11-18T09:07:15;26.58;;;24.17;;
21899;SDS011;11114;50.658;12.704;2023-11-18T09:10:06;27.75;;;25.13;;
21899;SDS011;11114;50.658;12.704;2023-11-18T09:12:56;27.73;;;25.27;;
21899;SDS011;11114;50.658;12.704;2023-11-18T09:15:45;27.50;;;25.10;;
21899;SDS011;11114;50.658;12.704;2023-11-18T09:18:32;27.85;;;25.30;;
21899;SDS011;11114;50.658;12.704;2023-11-18T09:21:20;26.73;;;24.42;;
21899;SDS011;11114;50.658;12.704;2023-11-18T09:24:11;26.75;;;24.23;;
21899;SDS011;11114;50.658;12.704;2023-11-18T09:26:59;25.05;;;22.85;;
21899;SDS011;11114;50.658;12.704;2023-11-18T09:29:46;26.25;;;23.85;;
21899;SDS011;11114;50.658;12.704;2023-11-18T09:32:33;26.05;;;23.85;;
21899;SDS011;11114;50.658;12.704;2023-11-18T09:35:22;25.98;;;23.77;;
21899;SDS011;11114;50.658;12.704;2023-11-18T09:38:09;26.80;;;24.20;;
21899;SDS011;11114;50.658;12.704;2023-11-18T09:40:59;26.65;;;24.15;;
21899;SDS011;11114;50.658;12.704;2023-11-18T09:43:49;25.98;;;23.75;;
21899;SDS011;11114;50.658;12.704;2023-11-18T09:46:40;26.20;;;23.90;;
21899;SDS011;11114;50.658;12.704;2023-11-18T09:49:32;26.02;;;23.58;;
21899;SDS011;11114;50.658;12.704;2023-11-18T09:52:25;26.80;;;24.40;;
21899;SDS011;11114;50.658;12.704;2023-11-18T09:55:15;27.67;;;25.08;;
21899;SDS011;11114;50.658;12.704;2023-11-18T09:58:30;27.48;;;24.95;;
21899;SDS011;11114;50.658;12.704;2023-11-18T10:01:27;26.77;;;24.48;;
21899;SDS011;11114;50.658;12.704;2023-11-18T10:04:14;26.98;;;24.48;;
21899;SDS011;11114;50.658;12.704;2023-11-18T10:09:57;27.13;;;24.70;;
21899;SDS011;11114;50.658;12.704;2023-11-18T10:12:47;26.85;;;24.35;;
21899;SDS011;11114;50.658;12.704;2023-11-18T10:15:38;26.05;;;23.85;;
21899;SDS011;11114;50.658;12.704;2023-11-18T10:18:25;26.85;;;24.38;;
21899;SDS011;11114;50.658;12.704;2023-11-18T10:21:14;26.58;;;24.25;;
21899;SDS011;11114;50.658;12.704;2023-11-18T10:24:04;26.35;;;23.98;;
21899;SDS011;11114;50.658;12.704;2023-11-18T10:26:56;26.98;;;24.48;;
21899;SDS011;11114;50.658;12.704;2023-11-18T10:29:43;26.45;;;24.25;;
21899;SDS011;11114;50.658;12.704;2023-11-18T10:32:30;28.20;;;25.73;;
21899;SDS011;11114;50.658;12.704;2023-11-18T10:35:21;26.77;;;24.52;;
21899;SDS011;11114;50.658;12.704;2023-11-18T10:38:08;27.40;;;25.10;;
21899;SDS011;11114;50.658;12.704;2023-11-18T10:40:57;28.42;;;25.83;;
21899;SDS011;11114;50.658;12.704;2023-11-18T10:43:47;28.25;;;25.77;;
21899;SDS011;11114;50.658;12.704;2023-11-18T10:46:36;27.42;;;25.13;;
21899;SDS011;11114;50.658;12.704;2023-11-18T10:49:22;28.65;;;25.95;;
21899;SDS011;11114;50.658;12.704;2023-11-18T10:52:09;27.23;;;24.92;;
21899;SDS011;11114;50.658;12.704;2023-11-18T10:54:56;27.42;;;24.75;;
21899;SDS011;11114;50.658;12.704;2023-11-18T10:57:43;29.02;;;26.45;;
21899;SDS011;11114;50.658;12.704;2023-11-18T11:00:45;28.67;;;26.17;;
21899;SDS011;11114;50.658;12.704;2023-11-18T11:03:52;27.45;;;25.08;;
21899;SDS011;11114;50.658;12.704;2023-11-18T11:06:46;28.48;;;26.00;;
21899;SDS011;11114;50.658;12.704;2023-11-18T11:09:40;28.75;;;26.27;;
21899;SDS011;11114;50.658;12.704;2023-11-18T11:12:33;26.77;;;24.17;;
21899;SDS011;11114;50.658;12.704;2023-11-18T11:15:31;24.63;;;22.52;;
21899;SDS011;11114;50.658;12.704;2023-11-18T11:18:37;24.75;;;22.75;;
21899;SDS011;11114;50.658;12.704;2023-11-18T11:21:31;25.45;;;23.25;;
21899;SDS011;11114;50.658;12.704;2023-11-18T11:24:26;25.23;;;23.10;;
21899;SDS011;11114;50.658;12.704;2023-11-18T11:27:28;24.33;;;22.17;;
21899;SDS011;11114;50.658;12.704;2023-11-18T11:30:28;24.90;;;22.80;;
21899;SDS011;11114;50.658;12.704;2023-11-18T11:36:20;24.15;;;22.05;;
21899;SDS011;11114;50.658;12.704;2023-11-18T11:39:10;23.85;;;21.85;;
21899;SDS011;11114;50.658;12.704;2023-11-18T11:42:05;23.73;;;21.73;;
21899;SDS011;11114;50.658;12.704;2023-11-18T11:44:55;25.63;;;23.42;;
21899;SDS011;11114;50.658;12.704;2023-11-18T11:47:47;25.17;;;23.02;;
21899;SDS011;11114;50.658;12.704;2023-11-18T11:51:02;26.85;;;24.52;;
21899;SDS011;11114;50.658;12.704;2023-11-18T11:54:09;22.90;;;21.00;;
21899;SDS011;11114;50.658;12.704;2023-11-18T11:57:01;22.77;;;20.95;;
21899;SDS011;11114;50.658;12.704;2023-11-18T12:02:49;20.30;;;18.70;;
21899;SDS011;11114;50.658;12.704;2023-11-18T12:05:41;19.77;;;18.17;;
21899;SDS011;11114;50.658;12.704;2023-11-18T12:08:30;21.05;;;19.13;;
21899;SDS011;11114;50.658;12.704;2023-11-18T12:11:17;20.63;;;18.85;;
21899;SDS011;11114;50.658;12.704;2023-11-18T12:14:08;20.85;;;19.25;;
21899;SDS011;11114;50.658;12.704;2023-11-18T12:17:10;20.63;;;18.95;;
21899;SDS011;11114;50.658;12.704;2023-11-18T12:19:59;19.50;;;18.00;;
21899;SDS011;11114;50.658;12.704;2023-11-18T12:23:04;20.40;;;18.70;;
21899;SDS011;11114;50.658;12.704;2023-11-18T12:26:00;20.80;;;19.20;;
21899;SDS011;11114;50.658;12.704;2023-11-18T12:28:49;20.58;;;19.08;;
21899;SDS011;11114;50.658;12.704;2023-11-18T12:31:39;19.38;;;18.00;;
21899;SDS011;11114;50.658;12.704;2023-11-18T12:37:56;21.15;;;19.25;;
21899;SDS011;11114;50.658;12.704;2023-11-18T12:40:56;21.25;;;19.58;;
21899;SDS011;11114;50.658;12.704;2023-11-18T12:43:48;19.35;;;17.95;;
21899;SDS011;11114;50.658;12.704;2023-11-18T12:49:42;19.98;;;18.45;;
21899;SDS011;11114;50.658;12.704;2023-11-18T12:52:31;19.60;;;18.05;;
21899;SDS011;11114;50.658;12.704;2023-11-18T12:55:19;19.40;;;18.10;;
21899;SDS011;11114;50.658;12.704;2023-11-18T12:58:07;17.88;;;16.58;;
21899;SDS011;11114;50.658;12.704;2023-11-18T13:00:53;17.55;;;16.35;;
21899;SDS011;11114;50.658;12.704;2023-11-18T13:03:40;18.17;;;16.77;;
21899;SDS011;11114;50.658;12.704;2023-11-18T13:06:28;17.98;;;16.65;;
21899;SDS011;11114;50.658;12.704;2023-11-18T13:09:14;18.23;;;16.92;;
21899;SDS011;11114;50.658;12.704;2023-11-18T13:12:13;18.42;;;17.13;;
21899;SDS011;11114;50.658;12.704;2023-11-18T13:15:01;17.33;;;16.23;;
21899;SDS011;11114;50.658;12.704;2023-11-18T13:18:00;22.27;;;17.30;;
21899;SDS011;11114;50.658;12.704;2023-11-18T13:20:58;17.48;;;16.27;;
21899;SDS011;11114;50.658;12.704;2023-11-18T13:23:45;17.83;;;16.52;;
21899;SDS011;11114;50.658;12.704;2023-11-18T13:26:34;17.65;;;16.45;;
21899;SDS011;11114;50.658;12.704;2023-11-18T13:29:21;17.88;;;16.67;;
21899;SDS011;11114;50.658;12.704;2023-11-18T13:32:11;16.65;;;15.40;;
21899;SDS011;11114;50.658;12.704;2023-11-18T13:35:00;15.82;;;14.80;;
21899;SDS011;11114;50.658;12.704;2023-11-18T13:37:49;16.50;;;15.40;;
21899;SDS011;11114;50.658;12.704;2023-11-18T13:40:43;17.58;;;16.38;;
21899;SDS011;11114;50.658;12.704;2023-11-18T13:43:51;17.35;;;16.15;;
21899;SDS011;11114;50.658;12.704;2023-11-18T13:46:39;18.45;;;16.90;;
21899;SDS011;11114;50.658;12.704;2023-11-18T13:49:29;18.07;;;16.77;;
21899;SDS011;11114;50.658;12.704;2023-11-18T13:52:15;18.33;;;17.13;;
21899;SDS011;11114;50.658;12.704;2023-11-18T13:55:08;18.00;;;16.58;;
21899;SDS011;11114;50.658;12.704;2023-11-18T13:58:03;16.80;;;15.60;;
21899;SDS011;11114;50.658;12.704;2023-11-18T14:00:51;17.60;;;16.40;;
21899;SDS011;11114;50.658;12.704;2023-11-18T14:03:39;17.20;;;15.80;;
21899;SDS011;11114;50.658;12.704;2023-11-18T14:06:26;16.63;;;15.52;;
21899;SDS011;11114;50.658;12.704;2023-11-18T14:09:13;17.23;;;16.02;;
21899;SDS011;11114;50.658;12.704;2023-11-18T14:12:02;16.83;;;15.70;;
21899;SDS011;11114;50.658;12.704;2023-11-18T14:14:53;37.00;;;17.58;;
21899;SDS011;11114;50.658;12.704;2023-11-18T14:17:39;17.40;;;16.20;;
21899;SDS011;11114;50.658;12.704;2023-11-18T14:20:26;16.60;;;15.50;;
21899;SDS011;11114;50.658;12.704;2023-11-18T14:23:13;16.85;;;15.70;;
21899;SDS011;11114;50.658;12.704;2023-11-18T14:26:00;16.42;;;15.32;;
21899;SDS011;11114;50.658;12.704;2023-11-18T14:28:46;16.90;;;15.80;;
21899;SDS011;11114;50.658;12.704;2023-11-18T14:31:33;16.92;;;15.73;;
21899;SDS011;11114;50.658;12.704;2023-11-18T14:34:22;17.30;;;16.13;;
21899;SDS011;11114;50.658;12.704;2023-11-18T14:37:10;16.58;;;15.38;;
21899;SDS011;11114;50.658;12.704;2023-11-18T14:39:57;16.88;;;15.57;;
21899;SDS011;11114;50.658;12.704;2023-11-18T14:42:46;16.80;;;15.60;;
21899;SDS011;11114;50.658;12.704;2023-11-18T14:45:34;17.17;;;15.98;;
21899;SDS011;11114;50.658;12.704;2023-11-18T14:48:21;17.10;;;15.90;;
21899;SDS011;11114;50.658;12.704;2023-11-18T14:51:08;16.63;;;15.43;;
21899;SDS011;11114;50.658;12.704;2023-11-18T14:53:54;16.48;;;15.38;;
21899;SDS011;11114;50.658;12.704;2023-11-18T14:56:41;16.20;;;15.10;;
21899;SDS011;11114;50.658;12.704;2023-11-18T14:59:27;17.05;;;15.85;;
21899;SDS011;11114;50.658;12.704;2023-11-18T15:02:13;16.23;;;14.98;;
21899;SDS011;11114;50.658;12.704;2023-11-18T15:05:01;17.67;;;16.40;;
21899;SDS011;11114;50.658;12.704;2023-11-18T15:07:52;16.33;;;15.23;;
21899;SDS011;11114;50.658;12.704;2023-11-18T15:10:41;15.85;;;14.70;;
21899;SDS011;11114;50.658;12.704;2023-11-18T15:13:33;16.27;;;15.18;;
21899;SDS011;11114;50.658;12.704;2023-11-18T15:16:19;15.65;;;14.55;;
21899;SDS011;11114;50.658;12.704;2023-11-18T15:19:06;15.70;;;14.60;;
21899;SDS011;11114;50.658;12.704;2023-11-18T15:21:53;15.50;;;14.30;;
21899;SDS011;11114;50.658;12.704;2023-11-18T15:24:39;15.93;;;14.82;;
21899;SDS011;11114;50.658;12.704;2023-11-18T15:27:25;15.35;;;14.23;;
21899;SDS011;11114;50.658;12.704;2023-11-18T15:30:12;15.90;;;14.73;;
21899;SDS011;11114;50.658;12.704;2023-11-18T15:32:59;15.10;;;14.00;;
21899;SDS011;11114;50.658;12.704;2023-11-18T15:35:47;14.55;;;13.50;;
21899;SDS011;11114;50.658;12.704;2023-11-18T15:38:33;15.00;;;14.00;;
21899;SDS011;11114;50.658;12.704;2023-11-18T15:41:20;14.95;;;13.95;;
21899;SDS011;11114;50.658;12.704;2023-11-18T15:44:07;16.27;;;15.13;;
21899;SDS011;11114;50.658;12.704;2023-11-18T15:46:54;15.82;;;14.63;;
21899;SDS011;11114;50.658;12.704;2023-11-18T15:49:41;15.82;;;14.73;;
21899;SDS011;11114;50.658;12.704;2023-11-18T15:52:27;15.80;;;14.70;;
21899;SDS011;11114;50.658;12.704;2023-11-18T15:55:15;16.13;;;14.98;;
21899;SDS011;11114;50.658;12.704;2023-11-18T15:58:04;16.02;;;14.93;;
21899;SDS011;11114;50.658;12.704;2023-11-18T16:00:50;15.95;;;14.85;;
21899;SDS011;11114;50.658;12.704;2023-11-18T16:03:38;15.70;;;14.60;;
21899;SDS011;11114;50.658;12.704;2023-11-18T16:06:25;16.17;;;14.93;;
21899;SDS011;11114;50.658;12.704;2023-11-18T16:09:12;16.42;;;15.20;;
21899;SDS011;11114;50.658;12.704;2023-11-18T16:11:59;17.25;;;15.93;;
21899;SDS011;11114;50.658;12.704;2023-11-18T16:14:45;17.08;;;15.85;;
21899;SDS011;11114;50.658;12.704;2023-11-18T16:17:33;17.00;;;15.70;;
21899;SDS011;11114;50.658;12.704;2023-11-18T16:20:21;17.05;;;15.75;;
21899;SDS011;11114;50.658;12.704;2023-11-18T16:23:10;16.67;;;15.48;;
21899;SDS011;11114;50.658;12.704;2023-11-18T16:25:56;16.23;;;15.02;;
21899;SDS011;11114;50.658;12.704;2023-11-18T16:28:43;17.17;;;15.88;;
21899;SDS011;11114;50.658;12.704;2023-11-18T16:31:30;16.67;;;15.38;;
21899;SDS011;11114;50.658;12.704;2023-11-18T16:34:17;17.42;;;16.13;;